createdAt,value
2023-08-25T00:00:22.035Z,7.93
2023-08-25T00:02:49.059Z,8.68
2023-08-25T00:05:16.095Z,8.43
2023-08-25T00:07:44.409Z,8.73
2023-08-25T00:10:11.470Z,8.60
2023-08-25T00:12:38.510Z,8.05
2023-08-25T00:15:06.472Z,7.82
2023-08-25T00:17:33.566Z,8.50
2023-08-25T00:20:00.590Z,8.25
2023-08-25T00:22:28.775Z,8.75
2023-08-25T00:24:57.095Z,9.35
2023-08-25T00:27:24.108Z,8.40
2023-08-25T00:29:51.383Z,8.93
2023-08-25T00:32:18.356Z,8.93
2023-08-25T00:34:45.333Z,8.65
2023-08-25T00:37:12.442Z,8.95
2023-08-25T00:39:39.693Z,8.60
2023-08-25T00:42:08.157Z,8.02
2023-08-25T00:44:35.645Z,9.18
2023-08-25T00:47:02.603Z,8.77
2023-08-25T00:49:29.830Z,8.57
2023-08-25T00:51:57.012Z,8.60
2023-08-25T00:54:27.438Z,8.02
2023-08-25T00:56:54.747Z,6.93
2023-08-25T00:59:23.307Z,8.02
2023-08-25T01:01:50.575Z,7.18
2023-08-25T01:04:17.661Z,7.53
2023-08-25T01:06:44.662Z,6.30
2023-08-25T01:09:12.118Z,6.50
2023-08-25T01:11:45.271Z,6.82
2023-08-25T01:14:19.472Z,7.20
2023-08-25T01:16:56.248Z,6.55
2023-08-25T01:19:44.749Z,6.00
2023-08-25T01:22:15.667Z,6.32
2023-08-25T01:24:47.914Z,6.70
2023-08-25T01:27:16.502Z,6.88
2023-08-25T01:29:44.370Z,5.90
2023-08-25T01:32:11.477Z,6.10
2023-08-25T01:34:38.773Z,6.05
2023-08-25T01:37:13.298Z,5.53
2023-08-25T01:39:43.342Z,5.78
2023-08-25T01:42:11.663Z,5.53
2023-08-25T01:44:42.713Z,5.68
2023-08-25T01:47:11.073Z,4.82
2023-08-25T01:49:39.588Z,5.45
2023-08-25T01:52:07.532Z,5.32
2023-08-25T01:54:34.604Z,5.95
2023-08-25T01:57:01.536Z,5.85
2023-08-25T01:59:28.678Z,6.28
2023-08-25T02:01:57.176Z,5.90
2023-08-25T02:04:24.175Z,5.50
2023-08-25T02:06:51.158Z,6.20
2023-08-25T02:09:18.218Z,5.22
2023-08-25T02:11:45.177Z,5.05
2023-08-25T02:14:12.140Z,4.68
2023-08-25T02:16:39.118Z,4.97
2023-08-25T02:19:07.538Z,4.82
2023-08-25T02:21:34.537Z,5.03
2023-08-25T02:24:01.531Z,5.43
2023-08-25T02:26:28.419Z,4.70
2023-08-25T02:28:55.314Z,4.93
2023-08-25T02:31:22.340Z,4.88
2023-08-25T02:33:49.330Z,5.07
2023-08-25T02:36:17.638Z,5.38
2023-08-25T02:38:44.528Z,4.20
2023-08-25T02:41:11.445Z,4.75
2023-08-25T02:43:38.363Z,4.22
2023-08-25T02:46:05.529Z,4.80
2023-08-25T02:48:32.567Z,4.68
2023-08-25T02:50:59.588Z,4.78
2023-08-25T02:53:27.907Z,4.60
2023-08-25T02:55:54.858Z,4.75
2023-08-25T02:58:21.832Z,4.97
2023-08-25T03:00:49.004Z,4.75
2023-08-25T03:03:16.033Z,5.03
2023-08-25T03:05:43.304Z,5.20
2023-08-25T03:08:10.235Z,4.97
2023-08-25T03:10:38.817Z,4.00
2023-08-25T03:13:06.087Z,4.60
2023-08-25T03:15:33.155Z,4.32
2023-08-25T03:18:00.425Z,3.90
2023-08-25T03:20:27.385Z,4.10
2023-08-25T03:22:54.320Z,4.20
2023-08-25T03:25:21.273Z,4.22
2023-08-25T03:27:49.559Z,4.22
2023-08-25T03:30:16.512Z,4.40
2023-08-25T03:32:43.500Z,5.03
2023-08-25T03:35:10.513Z,4.30
2023-08-25T03:37:37.467Z,4.93
2023-08-25T03:40:05.608Z,5.68
2023-08-25T03:42:32.600Z,5.30
2023-08-25T03:45:00.880Z,5.43
2023-08-25T03:47:27.856Z,6.00
2023-08-25T03:49:54.808Z,6.07
2023-08-25T03:52:21.797Z,5.38
2023-08-25T03:54:48.843Z,5.88
2023-08-25T03:57:15.804Z,5.63
2023-08-25T03:59:42.717Z,5.47
2023-08-25T04:02:11.113Z,6.32
2023-08-25T04:04:38.099Z,6.57
2023-08-25T04:07:05.457Z,5.70
2023-08-25T04:09:32.431Z,6.50
2023-08-25T04:11:59.347Z,7.03
2023-08-25T04:14:26.350Z,5.95
2023-08-25T04:16:53.370Z,6.50
2023-08-25T04:19:21.836Z,6.50
2023-08-25T04:21:48.934Z,6.53
2023-08-25T04:24:17.084Z,6.93
2023-08-25T04:26:44.246Z,6.85
2023-08-25T04:29:11.179Z,6.90
2023-08-25T04:31:38.439Z,6.93
2023-08-25T04:34:05.387Z,7.30
2023-08-25T04:36:33.719Z,6.80
2023-08-25T04:39:00.724Z,6.68
2023-08-25T04:41:27.715Z,6.30
2023-08-25T04:43:54.627Z,6.93
2023-08-25T04:46:21.593Z,6.97
2023-08-25T04:48:48.520Z,7.60
2023-08-25T04:51:15.478Z,7.22
2023-08-25T04:53:43.754Z,7.10
2023-08-25T04:56:10.716Z,6.50
2023-08-25T04:58:37.664Z,7.28
2023-08-25T05:01:04.794Z,6.82
2023-08-25T05:03:31.874Z,7.60
2023-08-25T05:05:58.958Z,7.07
2023-08-25T05:08:25.917Z,7.45
2023-08-25T05:10:54.346Z,6.82
2023-08-25T05:13:21.273Z,7.90
2023-08-25T05:15:48.264Z,8.55
2023-08-25T05:18:15.185Z,8.95
2023-08-25T05:20:42.119Z,9.18
2023-08-25T05:23:10.047Z,9.10
2023-08-25T05:25:37.219Z,9.43
2023-08-25T05:28:06.337Z,10.32
2023-08-25T05:30:33.296Z,10.90
2023-08-25T05:33:00.433Z,11.77
2023-08-25T05:35:27.386Z,12.00
2023-08-25T05:37:54.635Z,14.27
2023-08-25T05:40:21.864Z,14.25
2023-08-25T05:42:48.930Z,11.77
2023-08-25T05:45:17.314Z,12.32
2023-08-25T05:47:44.398Z,12.75
2023-08-25T05:50:11.461Z,13.25
2023-08-25T05:52:38.386Z,14.43
2023-08-25T05:55:06.125Z,13.90
2023-08-25T05:57:33.094Z,14.63
2023-08-25T06:00:00.036Z,13.57
2023-08-25T06:02:28.570Z,13.93
2023-08-25T06:04:55.732Z,13.25
2023-08-25T06:07:22.710Z,13.85
2023-08-25T06:09:49.624Z,13.05
2023-08-25T06:12:16.532Z,12.93
2023-08-25T06:14:43.503Z,13.48
2023-08-25T06:17:11.535Z,13.38
2023-08-25T06:19:39.772Z,14.05
2023-08-25T06:22:06.687Z,14.30
2023-08-25T06:24:33.632Z,14.75
2023-08-25T06:27:00.583Z,13.85
2023-08-25T06:29:27.501Z,13.68
2023-08-25T06:31:54.608Z,13.15
2023-08-25T06:34:21.605Z,13.13
2023-08-25T06:36:49.938Z,12.55
2023-08-25T06:39:17.161Z,12.27
2023-08-25T06:41:44.071Z,12.63
2023-08-25T06:44:11.028Z,12.65
2023-08-25T06:46:37.993Z,13.23
2023-08-25T06:49:04.984Z,12.18
2023-08-25T06:51:31.881Z,13.27
2023-08-25T06:54:00.367Z,12.38
2023-08-25T06:56:27.310Z,14.10
2023-08-25T06:58:54.234Z,14.05
2023-08-25T07:01:21.239Z,12.52
2023-08-25T07:03:48.271Z,13.55
2023-08-25T07:06:15.246Z,12.95
2023-08-25T07:08:48.587Z,13.98
2023-08-25T07:11:16.939Z,15.27
2023-08-25T07:13:43.838Z,16.15
2023-08-25T07:16:10.844Z,18.02
2023-08-25T07:18:37.857Z,18.70
2023-08-25T07:21:05.110Z,18.92
2023-08-25T07:23:32.090Z,22.05
2023-08-25T07:25:59.111Z,22.15
2023-08-25T07:28:27.421Z,22.27
2023-08-25T07:30:54.458Z,21.73
2023-08-25T07:33:21.416Z,21.40
2023-08-25T07:35:48.405Z,22.23
2023-08-25T07:38:15.414Z,21.17
2023-08-25T07:40:42.494Z,20.83
2023-08-25T07:43:09.543Z,19.25
2023-08-25T07:45:38.430Z,19.70
2023-08-25T07:48:06.404Z,21.05
2023-08-25T07:50:33.592Z,20.88
2023-08-25T07:53:00.967Z,21.50
2023-08-25T07:55:28.241Z,21.38
2023-08-25T07:57:55.740Z,21.95
2023-08-25T08:00:23.413Z,23.67
2023-08-25T08:02:52.021Z,24.15
2023-08-25T08:05:19.859Z,24.92
2023-08-25T08:07:47.882Z,25.75
2023-08-25T08:10:18.185Z,23.75
2023-08-25T08:12:45.908Z,24.55
2023-08-25T08:15:13.034Z,26.95
2023-08-25T08:17:40.099Z,25.80
2023-08-25T08:20:09.718Z,25.80
2023-08-25T08:22:36.702Z,26.42
2023-08-25T08:25:04.262Z,27.05
2023-08-25T08:27:31.273Z,25.35
2023-08-25T08:29:58.270Z,25.67
2023-08-25T08:32:25.205Z,27.33
2023-08-25T08:34:52.241Z,27.98
2023-08-25T08:37:20.607Z,27.38
2023-08-25T08:39:47.539Z,26.55
2023-08-25T08:42:15.231Z,25.98
2023-08-25T08:44:45.829Z,26.05
2023-08-25T08:47:13.037Z,24.23
2023-08-25T08:49:41.231Z,26.30
2023-08-25T08:52:09.093Z,26.33
2023-08-25T08:54:38.582Z,24.38
2023-08-25T08:57:06.105Z,23.80
2023-08-25T08:59:33.208Z,24.73
2023-08-25T09:02:00.586Z,25.73
2023-08-25T09:04:28.901Z,23.67
2023-08-25T09:06:59.021Z,23.73
2023-08-25T09:09:26.014Z,23.60
2023-08-25T09:11:54.402Z,23.42
2023-08-25T09:14:25.150Z,23.60
2023-08-25T09:16:54.803Z,23.23
2023-08-25T09:19:21.766Z,23.83
2023-08-25T09:21:48.791Z,23.83
2023-08-25T09:24:19.714Z,24.42
2023-08-25T09:26:50.396Z,24.80
2023-08-25T09:29:20.699Z,25.00
2023-08-25T09:31:47.644Z,26.65
2023-08-25T09:34:15.638Z,29.73
2023-08-25T09:36:53.355Z,29.02
2023-08-25T09:39:21.255Z,29.05
2023-08-25T09:41:48.927Z,30.30
2023-08-25T09:44:16.428Z,31.00
2023-08-25T09:46:45.677Z,30.58
2023-08-25T09:49:14.407Z,30.90
2023-08-25T09:51:43.203Z,30.45
2023-08-25T09:54:11.780Z,31.35
2023-08-25T09:56:39.857Z,31.88
2023-08-25T09:59:07.925Z,32.58
2023-08-25T10:01:36.458Z,33.13
2023-08-25T10:04:06.017Z,32.55
2023-08-25T10:06:34.614Z,31.67
2023-08-25T10:09:02.156Z,30.65
2023-08-25T10:11:31.310Z,33.83
2023-08-25T10:14:03.554Z,32.40
2023-08-25T10:16:34.140Z,33.05
2023-08-25T10:19:02.950Z,33.05
2023-08-25T10:21:32.321Z,33.88
2023-08-25T10:24:01.516Z,34.20
2023-08-25T10:26:28.969Z,33.80
2023-08-25T10:28:56.507Z,33.13
2023-08-25T10:31:24.301Z,33.63
2023-08-25T10:33:53.272Z,32.45
2023-08-25T10:36:22.658Z,32.72
2023-08-25T10:39:09.122Z,31.75
2023-08-25T10:41:41.870Z,30.50
2023-08-25T10:44:11.074Z,31.92
2023-08-25T10:46:48.635Z,33.97
2023-08-25T10:49:16.116Z,35.75
2023-08-25T10:51:43.054Z,34.78
2023-08-25T10:54:24.735Z,38.58
2023-08-25T10:56:52.310Z,35.33
2023-08-25T10:59:21.546Z,32.72
2023-08-25T11:01:55.612Z,32.40
2023-08-25T11:04:24.333Z,30.52
2023-08-25T11:06:52.158Z,30.10
2023-08-25T11:09:40.388Z,30.55
2023-08-25T11:12:09.519Z,31.25
2023-08-25T11:14:44.414Z,34.08
2023-08-25T11:17:11.716Z,35.95
2023-08-25T11:19:39.151Z,33.60
2023-08-25T11:22:15.460Z,35.17
2023-08-25T11:24:52.404Z,35.03
2023-08-25T11:27:30.376Z,31.17
2023-08-25T11:30:08.375Z,31.10
2023-08-25T11:32:41.536Z,34.15
2023-08-25T11:35:10.385Z,33.17
2023-08-25T11:37:43.483Z,31.15
2023-08-25T11:40:12.635Z,29.73
2023-08-25T11:42:47.389Z,33.20
2023-08-25T11:47:48.468Z,37.90
2023-08-25T11:50:15.623Z,41.58
2023-08-25T11:52:42.718Z,42.33
2023-08-25T11:55:23.419Z,42.45
2023-08-25T11:57:51.414Z,40.17
2023-08-25T12:00:25.407Z,39.35
2023-08-25T12:02:57.556Z,37.20
2023-08-25T12:05:34.463Z,36.35
2023-08-25T12:08:02.051Z,38.17
2023-08-25T12:10:40.703Z,36.03
2023-08-25T12:13:07.755Z,33.55
2023-08-25T12:15:47.425Z,31.77
2023-08-25T12:18:14.545Z,29.33
2023-08-25T12:20:50.470Z,28.25
2023-08-25T12:23:17.503Z,32.67
2023-08-25T12:25:52.448Z,33.90
2023-08-25T12:28:19.352Z,34.45
2023-08-25T12:30:46.325Z,35.45
2023-08-25T12:33:19.448Z,37.70
2023-08-25T12:35:46.438Z,37.33
2023-08-25T12:38:13.385Z,34.70
2023-08-25T12:40:46.458Z,35.70
2023-08-25T12:43:14.765Z,34.53
2023-08-25T12:45:41.806Z,35.67
2023-08-25T12:48:15.497Z,36.20
2023-08-25T12:50:42.582Z,38.08
2023-08-25T12:53:09.609Z,36.47
2023-08-25T12:55:43.611Z,37.95
2023-08-25T12:58:17.552Z,37.15
2023-08-25T13:00:52.667Z,36.47
2023-08-25T13:03:19.791Z,37.78
2023-08-25T13:05:46.913Z,36.88
2023-08-25T13:08:20.448Z,37.47
2023-08-25T13:10:52.304Z,38.58
2023-08-25T13:13:19.712Z,38.22
2023-08-25T13:15:54.523Z,37.67
2023-08-25T13:18:28.429Z,35.75
2023-08-25T13:21:01.410Z,37.17
2023-08-25T13:23:39.285Z,34.65
2023-08-25T13:26:18.473Z,35.65
2023-08-25T13:28:45.376Z,35.05
2023-08-25T13:31:13.706Z,33.67
2023-08-25T13:33:47.884Z,32.95
2023-08-25T13:36:21.452Z,31.42
2023-08-25T13:38:55.461Z,31.05
2023-08-25T13:41:22.369Z,30.50
2023-08-25T13:43:58.605Z,35.05
2023-08-25T13:46:27.056Z,34.75
2023-08-25T13:48:53.968Z,27.23
2023-08-25T13:51:27.444Z,26.88
2023-08-25T13:53:54.999Z,26.48
2023-08-25T13:56:28.826Z,25.63
2023-08-25T13:58:56.344Z,27.00
2023-08-25T14:01:23.475Z,26.17
2023-08-25T14:03:58.774Z,25.45
2023-08-25T14:06:25.789Z,25.15
2023-08-25T14:08:59.464Z,24.80
2023-08-25T14:11:26.600Z,24.95
2023-08-25T14:13:53.528Z,27.00
2023-08-25T14:16:27.976Z,26.98
2023-08-25T14:19:02.486Z,25.75
2023-08-25T14:21:36.474Z,25.70
2023-08-25T14:24:10.624Z,25.48
2023-08-25T14:26:44.509Z,26.95
2023-08-25T14:29:11.990Z,27.00
2023-08-25T14:31:39.080Z,27.42
2023-08-25T14:34:08.513Z,26.40
2023-08-25T14:36:35.977Z,26.88
2023-08-25T14:39:03.328Z,26.98
2023-08-25T14:41:30.257Z,26.05
2023-08-25T14:43:57.232Z,25.63
2023-08-25T14:46:27.364Z,25.73
2023-08-25T14:48:54.340Z,24.67
2023-08-25T14:51:22.724Z,25.70
2023-08-25T14:53:49.632Z,24.40
2023-08-25T14:56:16.537Z,24.02
2023-08-25T14:58:43.526Z,22.65
2023-08-25T15:01:10.503Z,22.35
2023-08-25T15:03:37.528Z,22.80
2023-08-25T15:06:04.657Z,21.65
2023-08-25T15:08:32.986Z,22.65
2023-08-25T15:10:59.964Z,21.35
2023-08-25T15:13:27.193Z,21.40
2023-08-25T15:15:54.198Z,20.95
2023-08-25T15:18:21.561Z,20.83
2023-08-25T15:20:56.996Z,20.67
2023-08-25T15:23:24.008Z,21.67
2023-08-25T15:25:52.368Z,20.73
2023-08-25T15:28:19.377Z,20.92
2023-08-25T15:30:46.541Z,20.55
2023-08-25T15:33:13.620Z,20.25
2023-08-25T15:35:43.775Z,16.92
2023-08-25T15:38:10.681Z,17.08
2023-08-25T15:40:37.617Z,16.70
2023-08-25T15:43:06.065Z,17.02
2023-08-25T15:45:33.525Z,16.63
2023-08-25T15:48:00.645Z,17.27
2023-08-25T15:50:27.633Z,17.30
2023-08-25T15:52:55.884Z,15.57
2023-08-25T15:55:22.917Z,16.23
2023-08-25T15:57:50.036Z,14.02
2023-08-25T16:00:19.291Z,14.60
2023-08-25T16:02:46.832Z,14.20
2023-08-25T16:05:13.832Z,14.95
2023-08-25T16:07:40.801Z,13.15
2023-08-25T16:10:09.413Z,11.25
2023-08-25T16:12:42.656Z,11.68
2023-08-25T16:15:11.477Z,10.65
2023-08-25T16:17:41.683Z,10.23
2023-08-25T16:20:09.948Z,10.05
2023-08-25T16:22:37.320Z,9.88
2023-08-25T16:25:05.002Z,10.00
2023-08-25T16:27:32.002Z,9.50
2023-08-25T16:29:58.960Z,10.13
2023-08-25T16:32:26.066Z,11.20
2023-08-25T16:34:54.358Z,9.60
2023-08-25T16:37:21.328Z,9.27
2023-08-25T16:39:48.279Z,9.32
2023-08-25T16:42:15.196Z,9.07
2023-08-25T16:44:42.356Z,8.80
2023-08-25T16:47:09.251Z,8.75
2023-08-25T16:49:36.198Z,9.80
2023-08-25T16:52:04.959Z,9.70
2023-08-25T16:54:31.890Z,9.18
2023-08-25T16:56:58.894Z,8.80
2023-08-25T16:59:26.028Z,8.07
2023-08-25T17:01:53.054Z,9.02
2023-08-25T17:04:20.073Z,8.63
2023-08-25T17:06:47.681Z,8.25
2023-08-25T17:09:16.009Z,7.47
2023-08-25T17:11:42.949Z,7.72
2023-08-25T17:14:09.929Z,8.38
2023-08-25T17:16:37.016Z,8.65
2023-08-25T17:19:04.001Z,8.43
2023-08-25T17:21:30.945Z,7.45
2023-08-25T17:23:57.923Z,7.53
2023-08-25T17:26:26.172Z,8.18
2023-08-25T17:28:53.100Z,7.55
2023-08-25T17:31:20.036Z,8.48
2023-08-25T17:33:47.509Z,8.75
2023-08-25T17:36:14.462Z,7.78
2023-08-25T17:38:41.886Z,7.35
2023-08-25T17:41:09.907Z,7.03
2023-08-25T17:43:39.053Z,7.70
2023-08-25T17:46:08.274Z,6.97
2023-08-25T17:48:35.717Z,7.63
2023-08-25T17:51:02.653Z,6.53
2023-08-25T17:53:29.727Z,6.75
2023-08-25T17:55:56.663Z,7.55
2023-08-25T17:58:30.219Z,6.82
2023-08-25T18:01:02.484Z,7.47
2023-08-25T18:03:36.258Z,7.50
2023-08-25T18:06:03.461Z,7.13
2023-08-25T18:08:30.616Z,7.80
2023-08-25T18:10:57.772Z,7.32
2023-08-25T18:13:24.824Z,8.02
2023-08-25T18:15:55.215Z,7.75
2023-08-25T18:18:24.001Z,7.60
2023-08-25T18:20:57.326Z,7.53
2023-08-25T18:23:25.911Z,9.00
2023-08-25T18:25:52.931Z,9.50
2023-08-25T18:28:20.369Z,11.93
2023-08-25T18:30:55.512Z,14.07
2023-08-25T18:33:23.864Z,14.27
2023-08-25T18:35:51.137Z,15.23
2023-08-25T18:38:18.026Z,15.98
2023-08-25T18:40:46.373Z,15.95
2023-08-25T18:43:13.540Z,16.13
2023-08-25T18:45:40.561Z,15.38
2023-08-25T18:48:07.795Z,15.40
2023-08-25T18:50:36.657Z,14.80
2023-08-25T18:53:03.786Z,14.80
2023-08-25T18:55:30.719Z,13.38
2023-08-25T18:57:57.992Z,13.85
2023-08-25T19:00:24.963Z,13.68
2023-08-25T19:02:58.535Z,14.93
2023-08-25T19:05:25.732Z,13.77
2023-08-25T19:07:54.572Z,14.30
2023-08-25T19:10:21.756Z,14.25
2023-08-25T19:12:48.729Z,12.95
2023-08-25T19:15:15.860Z,14.20
2023-08-25T19:17:49.317Z,15.15
2023-08-25T19:20:16.637Z,14.48
2023-08-25T19:22:43.617Z,14.82
2023-08-25T19:25:11.911Z,14.68
2023-08-25T19:27:39.331Z,14.65
2023-08-25T19:30:07.310Z,14.75
2023-08-25T19:32:34.285Z,14.25
2023-08-25T19:35:02.066Z,14.77
2023-08-25T19:37:29.308Z,14.27
2023-08-25T19:39:56.240Z,12.48
2023-08-25T19:42:24.626Z,10.60
2023-08-25T19:44:51.573Z,9.23
2023-08-25T19:47:18.547Z,9.27
2023-08-25T19:49:45.555Z,9.93
2023-08-25T19:52:12.475Z,8.85
2023-08-25T19:54:39.383Z,9.02
2023-08-25T19:57:06.636Z,9.23
2023-08-25T19:59:35.155Z,9.00
2023-08-25T20:02:08.235Z,7.40
2023-08-25T20:04:35.284Z,8.25
2023-08-25T20:07:02.330Z,9.07
2023-08-25T20:09:29.297Z,7.53
2023-08-25T20:11:56.236Z,8.88
2023-08-25T20:14:23.373Z,7.90
2023-08-25T20:16:51.720Z,8.05
2023-08-25T20:19:18.698Z,8.00
2023-08-25T20:21:45.700Z,8.68
2023-08-25T20:24:12.611Z,8.18
2023-08-25T20:26:39.542Z,8.15
2023-08-25T20:29:06.527Z,7.63
2023-08-25T20:31:33.664Z,8.15
2023-08-25T20:34:02.042Z,8.23
2023-08-25T20:36:29.039Z,7.88
2023-08-25T20:38:55.972Z,8.57
2023-08-25T20:41:22.875Z,9.07
2023-08-25T20:43:49.794Z,9.48
2023-08-25T20:46:18.021Z,8.70
2023-08-25T20:48:46.637Z,8.13
2023-08-25T20:51:15.294Z,7.55
2023-08-25T20:53:42.389Z,8.25
2023-08-25T20:56:10.136Z,8.48
2023-08-25T20:58:37.167Z,7.90
2023-08-25T21:01:04.203Z,7.13
2023-08-25T21:03:37.406Z,7.20
2023-08-25T21:06:04.824Z,6.72
2023-08-25T21:08:33.270Z,6.93
2023-08-25T21:11:00.358Z,6.00
2023-08-25T21:13:27.482Z,6.63
2023-08-25T21:15:55.233Z,6.13
2023-08-25T21:18:22.708Z,7.30
2023-08-25T21:20:50.814Z,6.25
2023-08-25T21:23:19.727Z,6.47
2023-08-25T21:25:51.022Z,6.60
2023-08-25T21:28:18.092Z,6.53
2023-08-25T21:30:51.012Z,6.07
2023-08-25T21:33:19.315Z,6.65
2023-08-25T21:35:46.303Z,7.38
2023-08-25T21:38:13.299Z,6.55
2023-08-25T21:40:40.303Z,5.57
2023-08-25T21:43:09.097Z,5.05
2023-08-25T21:45:36.761Z,5.22
2023-08-25T21:48:04.182Z,5.18
2023-08-25T21:50:31.131Z,4.65
2023-08-25T21:52:58.073Z,4.85
2023-08-25T21:55:25.132Z,4.60
2023-08-25T21:57:52.587Z,4.45
2023-08-25T22:00:20.924Z,3.70
2023-08-25T22:02:54.768Z,4.57
2023-08-25T22:05:22.194Z,4.18
2023-08-25T22:07:49.103Z,3.80
2023-08-25T22:10:16.280Z,4.30
2023-08-25T22:12:43.418Z,4.32
2023-08-25T22:15:11.076Z,3.97
2023-08-25T22:17:40.088Z,4.20
2023-08-25T22:20:08.128Z,4.85
2023-08-25T22:22:35.325Z,3.60
2023-08-25T22:25:02.395Z,4.05
2023-08-25T22:27:29.357Z,4.20
2023-08-25T22:29:56.271Z,4.20
2023-08-25T22:34:54.450Z,3.78
2023-08-25T22:37:21.397Z,4.00
2023-08-25T22:39:48.307Z,4.00
2023-08-25T22:42:15.224Z,3.83
2023-08-25T22:44:42.214Z,3.80
2023-08-25T22:47:09.567Z,3.40
2023-08-25T22:49:36.536Z,3.13
2023-08-25T22:52:05.436Z,2.90
2023-08-25T22:54:32.377Z,3.03
2023-08-25T22:56:59.431Z,2.88
2023-08-25T22:59:26.372Z,2.83
2023-08-25T23:02:00.344Z,2.65
2023-08-25T23:04:27.387Z,2.80
2023-08-25T23:06:54.287Z,2.72
2023-08-25T23:09:22.707Z,2.55
2023-08-25T23:11:49.759Z,2.13
2023-08-25T23:14:16.674Z,2.63
2023-08-25T23:16:43.619Z,2.50
2023-08-25T23:19:10.519Z,2.20
2023-08-25T23:21:37.485Z,2.58
2023-08-25T23:24:05.135Z,2.20
2023-08-25T23:26:35.553Z,2.17
2023-08-25T23:29:02.597Z,1.83
2023-08-25T23:31:29.563Z,2.40
2023-08-25T23:33:56.519Z,2.00
2023-08-25T23:36:23.457Z,1.90
2023-08-25T23:38:50.427Z,2.20
2023-08-25T23:41:17.334Z,2.88
2023-08-25T23:43:46.080Z,1.95
2023-08-25T23:46:13.073Z,2.25
2023-08-25T23:48:40.078Z,1.90
2023-08-25T23:51:07.194Z,2.25
2023-08-25T23:53:34.238Z,2.20
2023-08-25T23:56:01.221Z,2.17
2023-08-25T23:58:28.153Z,2.38
